< < Back
Terminal Aerodrome Forecast


Current Version              Previous Versions:   1  2  3  4  5  6  7  8  9  

Terminal Aerodrome Forecast

936
FTUS44 KOHX 290520
TAFBNA
TAF
KBNA 290520Z 2906/3006 14004KT P6SM SCT060
     FM291700 17009KT P6SM BKN040 BKN250
     FM300000 16005KT P6SM BKN150=



Latest METAR

174
SAUS70 KWBC 300100 RRJ
MTRBNA
METAR KBNA 300053Z 16008G16KT 10SM SCT150 SCT210 23/18 A3009 RMK AO2
SLP182 T02330183


USA.gov is the U.S. government's official web portal to all federal, state and local government web resources and services.